createdAt,value
2023-05-24T00:00:58.893Z,1.65
2023-05-24T00:03:59.388Z,1.3
2023-05-24T00:06:59.054Z,1.65
2023-05-24T00:09:59.029Z,1.5
2023-05-24T00:12:59.013Z,1.85
2023-05-24T00:15:58.958Z,1.05
2023-05-24T00:18:58.949Z,1.45
2023-05-24T00:21:58.979Z,1.45
2023-05-24T00:24:58.929Z,1.5
2023-05-24T00:27:58.974Z,1.3
2023-05-24T00:30:58.987Z,1.55
2023-05-24T00:33:59.056Z,1.15
2023-05-24T00:36:59.050Z,1.2
2023-05-24T00:39:59.019Z,1.15
2023-05-24T00:42:58.982Z,1.75
2023-05-24T00:45:59.109Z,1.45
2023-05-24T00:48:58.994Z,0.85
2023-05-24T00:51:59.001Z,1.1
2023-05-24T00:54:58.999Z,0.95
2023-05-24T00:57:58.933Z,0.65
2023-05-24T01:00:59.028Z,0.7
2023-05-24T01:03:59.354Z,0.55
2023-05-24T01:06:59.086Z,0.25
2023-05-24T01:09:59.046Z,0.6
2023-05-24T01:12:59.006Z,0.4
2023-05-24T01:15:59.157Z,0.65
2023-05-24T01:18:59.007Z,0.95
2023-05-24T01:21:59.082Z,1.15
2023-05-24T01:24:59.065Z,1.1
2023-05-24T01:27:59.046Z,1.35
2023-05-24T01:30:59.140Z,1.3
2023-05-24T01:33:59.064Z,1.3
2023-05-24T01:36:59.110Z,1.2
2023-05-24T01:39:59.034Z,1.3
2023-05-24T01:42:59.061Z,1.1
2023-05-24T01:45:59.038Z,1.05
2023-05-24T01:48:59.067Z,1
2023-05-24T01:51:59.333Z,1.4
2023-05-24T01:54:59.084Z,0.8
2023-05-24T01:57:58.998Z,0.5
2023-05-24T02:00:59.118Z,0.9
2023-05-24T02:03:59.381Z,0.75
2023-05-24T02:06:59.142Z,0.65
2023-05-24T02:09:59.059Z,0.55
2023-05-24T02:12:59.082Z,0.65
2023-05-24T02:15:59.081Z,0.75
2023-05-24T02:18:59.084Z,0.65
2023-05-24T02:21:59.026Z,1
2023-05-24T02:24:59.081Z,0.55
2023-05-24T02:27:59.121Z,0.6
2023-05-24T02:30:59.213Z,0.8
2023-05-24T02:33:59.091Z,0.55
2023-05-24T02:36:59.074Z,0.85
2023-05-24T02:39:59.137Z,0.45
2023-05-24T02:42:59.127Z,0.45
2023-05-24T02:45:59.303Z,0.85
2023-05-24T02:48:59.037Z,0.95
2023-05-24T02:51:59.157Z,0.7
2023-05-24T02:54:59.160Z,0.65
2023-05-24T02:57:59.132Z,0.5
2023-05-24T03:00:59.094Z,0.6
2023-05-24T03:03:59.501Z,0.7
2023-05-24T03:06:59.153Z,0.75
2023-05-24T03:09:59.114Z,0.25
2023-05-24T03:12:59.132Z,0.35
2023-05-24T03:15:59.127Z,0.5
2023-05-24T03:18:59.207Z,0.55
2023-05-24T03:21:59.197Z,0.35
2023-05-24T03:24:59.105Z,0.35
2023-05-24T03:27:59.143Z,0.25
2023-05-24T03:30:59.113Z,0.2
2023-05-24T03:33:59.166Z,0.1
2023-05-24T03:36:59.109Z,0.45
2023-05-24T03:39:59.266Z,0.5
2023-05-24T03:42:59.173Z,0
2023-05-24T03:45:59.209Z,0.4
2023-05-24T03:48:59.106Z,0.6
2023-05-24T03:51:59.217Z,0.8
2023-05-24T03:54:59.172Z,0.4
2023-05-24T03:57:59.247Z,0.35
2023-05-24T04:00:59.234Z,0.3
2023-05-24T04:03:59.226Z,0.5
2023-05-24T04:06:59.167Z,0.4
2023-05-24T04:09:59.201Z,0.7
2023-05-24T04:12:59.166Z,1
2023-05-24T04:15:59.149Z,0.35
2023-05-24T04:18:59.413Z,0.35
2023-05-24T04:21:59.218Z,0.55
2023-05-24T04:24:59.222Z,1
2023-05-24T04:27:59.316Z,0.8
2023-05-24T04:30:59.240Z,0.55
2023-05-24T04:33:59.145Z,0.75
2023-05-24T04:36:59.148Z,1.05
2023-05-24T04:39:59.410Z,1
2023-05-24T04:42:59.270Z,0.5
2023-05-24T04:45:59.159Z,0.65
2023-05-24T04:48:59.218Z,0.5
2023-05-24T04:51:59.288Z,0.45
2023-05-24T04:54:59.160Z,0.45
2023-05-24T04:57:59.311Z,0.85
2023-05-24T05:00:59.139Z,0.85
2023-05-24T05:03:59.368Z,0.9
2023-05-24T05:06:59.286Z,0.65
2023-05-24T05:09:59.270Z,0.4
2023-05-24T05:12:59.374Z,0.95
2023-05-24T05:15:59.356Z,1.25
2023-05-24T05:18:59.206Z,0.45
2023-05-24T05:21:59.359Z,1
2023-05-24T05:24:59.290Z,1.3
2023-05-24T05:27:59.290Z,1.2
2023-05-24T05:30:59.246Z,0.85
2023-05-24T05:33:59.362Z,0.95
2023-05-24T05:36:59.286Z,1.3
2023-05-24T05:39:59.277Z,1
2023-05-24T05:42:59.268Z,0.8
2023-05-24T05:45:59.344Z,1.25
2023-05-24T05:48:59.310Z,0.7
2023-05-24T05:51:59.277Z,0.95
2023-05-24T05:54:59.355Z,1.05
2023-05-24T05:57:59.293Z,0.9
2023-05-24T06:00:59.354Z,0.4
2023-05-24T06:03:59.500Z,0.8
2023-05-24T06:06:59.525Z,0.5
2023-05-24T06:09:59.326Z,0.7
2023-05-24T06:12:59.316Z,0.8
2023-05-24T06:15:59.352Z,0.7
2023-05-24T06:19:06.170Z,0.9
2023-05-24T06:21:59.239Z,1.05
2023-05-24T06:24:59.421Z,1.35
2023-05-24T06:27:59.324Z,1.35
2023-05-24T06:30:59.386Z,1.4
2023-05-24T06:34:04.546Z,0.9
2023-05-24T06:36:59.578Z,1.2
2023-05-24T06:39:59.308Z,1.65
2023-05-24T06:42:59.292Z,1.25
2023-05-24T06:45:59.335Z,1.85
2023-05-24T06:48:59.600Z,1.75
2023-05-24T06:51:59.370Z,1.55
2023-05-24T06:54:59.277Z,1.35
2023-05-24T06:57:59.357Z,2.35
2023-05-24T07:00:59.516Z,1.75
2023-05-24T07:03:59.412Z,1.35
2023-05-24T07:06:59.640Z,1.95
2023-05-24T07:09:59.394Z,2
2023-05-24T07:12:59.335Z,2.1
2023-05-24T07:15:59.330Z,1.85
2023-05-24T07:18:59.962Z,2.05
2023-05-24T07:21:59.449Z,2.15
2023-05-24T07:24:59.533Z,1.3
2023-05-24T07:27:59.403Z,1.7
2023-05-24T07:30:59.431Z,1.8
2023-05-24T07:33:59.338Z,2.05
2023-05-24T07:36:59.405Z,1.55
2023-05-24T07:39:59.435Z,1.6
2023-05-24T07:42:59.437Z,1.85
2023-05-24T07:45:59.542Z,2.3
2023-05-24T07:48:59.392Z,1.7
2023-05-24T07:51:59.453Z,2.25
2023-05-24T07:54:59.391Z,1.95
2023-05-24T07:57:59.336Z,1.6
2023-05-24T08:00:59.521Z,1.25
2023-05-24T08:03:59.711Z,1.85
2023-05-24T08:06:59.540Z,2.1
2023-05-24T08:09:59.457Z,1.8
2023-05-24T08:12:59.374Z,2.15
2023-05-24T08:15:59.473Z,2.45
2023-05-24T08:18:59.802Z,2.25
2023-05-24T08:21:59.409Z,2.15
2023-05-24T08:24:59.418Z,2.2
2023-05-24T08:27:59.511Z,2.15
2023-05-24T08:30:59.445Z,2.4
2023-05-24T08:33:59.478Z,2.1
2023-05-24T08:36:59.437Z,2.65
2023-05-24T08:39:59.566Z,2
2023-05-24T08:42:59.479Z,2.2
2023-05-24T08:45:59.551Z,1.8
2023-05-24T08:48:59.584Z,1.7
2023-05-24T08:51:59.426Z,1.8
2023-05-24T08:54:59.479Z,1.55
2023-05-24T08:57:59.484Z,1.4
2023-05-24T09:00:59.606Z,2.25
2023-05-24T09:03:59.630Z,1.7
2023-05-24T09:06:59.447Z,1.9
2023-05-24T09:09:59.472Z,1.55
2023-05-24T09:12:59.491Z,2
2023-05-24T09:15:59.566Z,2.25
2023-05-24T09:18:59.550Z,1.7
2023-05-24T09:21:59.482Z,1.35
2023-05-24T09:24:59.447Z,1.05
2023-05-24T09:27:59.549Z,2.4
2023-05-24T09:30:59.623Z,0.75
2023-05-24T09:33:59.447Z,2.05
2023-05-24T09:36:59.414Z,1.6
2023-05-24T09:39:59.507Z,1.4
2023-05-24T09:42:59.462Z,1.6
2023-05-24T09:45:59.617Z,1.35
2023-05-24T09:48:59.526Z,1.6
2023-05-24T09:51:59.652Z,1.45
2023-05-24T09:54:59.449Z,2.05
2023-05-24T09:57:59.467Z,2.25
2023-05-24T10:00:59.646Z,1.65
2023-05-24T10:03:59.715Z,2.05
2023-05-24T10:06:59.656Z,2
2023-05-24T10:09:59.559Z,2.3
2023-05-24T10:12:59.634Z,1.65
2023-05-24T10:15:59.618Z,1.35
2023-05-24T10:18:59.535Z,1.8
2023-05-24T10:21:59.580Z,1.65
2023-05-24T10:24:59.492Z,1.65
2023-05-24T10:27:59.504Z,1.55
2023-05-24T10:30:59.723Z,1.1
2023-05-24T10:34:08.089Z,1.55
2023-05-24T10:36:59.671Z,1.45
2023-05-24T10:39:59.572Z,1.35
2023-05-24T10:42:59.591Z,0.95
2023-05-24T10:45:59.555Z,1.4
2023-05-24T10:48:59.594Z,1.65
2023-05-24T10:51:59.589Z,0.95
2023-05-24T10:55:05.125Z,1.25
2023-05-24T10:57:59.576Z,2
2023-05-24T11:00:59.548Z,1.35
2023-05-24T11:04:00.869Z,0.85
2023-05-24T11:06:59.688Z,1.5
2023-05-24T11:09:59.735Z,1.75
2023-05-24T11:12:59.598Z,1.75
2023-05-24T11:15:59.588Z,1.75
2023-05-24T11:18:59.599Z,1.6
2023-05-24T11:21:59.752Z,1.65
2023-05-24T11:24:59.568Z,1.7
2023-05-24T11:27:59.702Z,1.8
2023-05-24T11:30:59.560Z,2.05
2023-05-24T11:33:59.757Z,2
2023-05-24T11:36:59.568Z,1.85
2023-05-24T11:39:59.686Z,2.85
2023-05-24T11:42:59.743Z,2.3
2023-05-24T11:45:59.810Z,2.2
2023-05-24T11:48:59.640Z,2.2
2023-05-24T11:51:59.638Z,2.75
2023-05-24T11:54:59.666Z,1.85
2023-05-24T11:57:59.611Z,2.1
2023-05-24T12:00:59.717Z,2
2023-05-24T12:04:00.029Z,2.7
2023-05-24T12:06:59.627Z,1.4
2023-05-24T12:09:59.831Z,1.55
2023-05-24T12:12:59.672Z,1.4
2023-05-24T12:15:59.931Z,1.6
2023-05-24T12:19:11.822Z,1.7
2023-05-24T12:21:59.639Z,1.8
2023-05-24T12:24:59.633Z,1.75
2023-05-24T12:27:59.696Z,1.3
2023-05-24T12:30:59.769Z,1.75
2023-05-24T12:33:59.621Z,1.15
2023-05-24T12:36:59.689Z,1.15
2023-05-24T12:39:59.720Z,1.65
2023-05-24T12:42:59.820Z,1.75
2023-05-24T12:45:59.661Z,1.85
2023-05-24T12:48:59.666Z,1.25
2023-05-24T12:51:59.703Z,1.65
2023-05-24T12:54:59.739Z,1.15
2023-05-24T12:57:59.706Z,0.65
2023-05-24T13:00:59.810Z,1.15
2023-05-24T13:03:59.725Z,1.15
2023-05-24T13:06:59.713Z,1.1
2023-05-24T13:09:59.682Z,1
2023-05-24T13:12:59.676Z,1.65
2023-05-24T13:15:59.776Z,1.05
2023-05-24T13:18:59.672Z,1.35
2023-05-24T13:21:59.807Z,0.85
2023-05-24T13:24:59.713Z,1.1
2023-05-24T13:27:59.846Z,1
2023-05-24T13:30:59.816Z,1.2
2023-05-24T13:33:59.635Z,1
2023-05-24T13:36:59.786Z,1.35
2023-05-24T13:39:59.776Z,0.85
2023-05-24T13:42:59.733Z,1.35
2023-05-24T13:45:59.845Z,0.85
2023-05-24T13:48:59.815Z,1.1
2023-05-24T13:52:00.048Z,1.15
2023-05-24T13:54:59.779Z,1.65
2023-05-24T13:57:59.751Z,1.05
2023-05-24T14:00:59.667Z,1.1
2023-05-24T14:03:59.727Z,0.7
2023-05-24T14:06:59.778Z,0.6
2023-05-24T14:09:59.824Z,1.35
2023-05-24T14:13:13.921Z,1.5
2023-05-24T14:15:59.852Z,1
2023-05-24T14:18:59.732Z,2
2023-05-24T14:21:59.903Z,1.95
2023-05-24T14:24:59.857Z,3.35
2023-05-24T14:27:59.781Z,1.9
2023-05-24T14:30:59.797Z,1.85
2023-05-24T14:33:59.838Z,1.5
2023-05-24T14:36:59.789Z,1.4
2023-05-24T14:39:59.989Z,2.1
2023-05-24T14:42:59.813Z,1.35
2023-05-24T14:45:59.830Z,1.95
2023-05-24T14:49:00.156Z,1.4
2023-05-24T14:51:59.801Z,1.25
2023-05-24T14:54:59.774Z,1.3
2023-05-24T14:57:59.951Z,1.25
2023-05-24T15:00:59.795Z,1.2
2023-05-24T15:03:59.925Z,0.6
2023-05-24T15:06:59.837Z,0.5
2023-05-24T15:09:59.824Z,1.9
2023-05-24T15:12:59.912Z,2.85
2023-05-24T15:15:59.822Z,2.55
2023-05-24T15:18:59.820Z,2.05
2023-05-24T15:21:59.765Z,1.65
2023-05-24T15:24:59.793Z,1.5
2023-05-24T15:27:59.869Z,1.6
2023-05-24T15:30:59.906Z,2
2023-05-24T15:33:59.868Z,0.7
2023-05-24T15:37:00.075Z,0.9
2023-05-24T15:39:59.809Z,1.5
2023-05-24T15:42:59.850Z,1.5
2023-05-24T15:45:59.818Z,1.15
2023-05-24T15:48:59.773Z,1.15
2023-05-24T15:52:05.220Z,0.85
2023-05-24T15:54:59.810Z,1.85
2023-05-24T15:57:59.735Z,1.65
2023-05-24T16:00:59.871Z,1.4
2023-05-24T16:03:59.852Z,1.25
2023-05-24T16:06:59.989Z,0.9
2023-05-24T16:09:59.856Z,1.8
2023-05-24T16:12:59.840Z,1.4
2023-05-24T16:15:59.886Z,1.6
2023-05-24T16:18:59.815Z,1.3
2023-05-24T16:21:59.828Z,0.6
2023-05-24T16:24:59.826Z,0.85
2023-05-24T16:27:59.943Z,1.1
2023-05-24T16:30:59.922Z,0.9
2023-05-24T16:33:59.877Z,1.35
2023-05-24T16:36:59.839Z,1.05
2023-05-24T16:39:59.899Z,0.9
2023-05-24T16:42:59.875Z,0.45
2023-05-24T16:45:59.906Z,1.05
2023-05-24T16:48:59.917Z,1.65
2023-05-24T16:51:59.890Z,1.85
2023-05-24T16:55:00.058Z,1.75
2023-05-24T16:57:59.890Z,1.75
2023-05-24T17:01:00.237Z,1.9
2023-05-24T17:04:00.176Z,1.85
2023-05-24T17:07:00.037Z,1.9
2023-05-24T17:09:59.940Z,2.1
2023-05-24T17:12:59.892Z,1.3
2023-05-24T17:16:00.005Z,1.7
2023-05-24T17:18:59.998Z,2.15
2023-05-24T17:21:59.891Z,2
2023-05-24T17:24:59.876Z,2.4
2023-05-24T17:27:59.941Z,1.9
2023-05-24T17:30:59.924Z,1.5
2023-05-24T17:34:00.015Z,2.35
2023-05-24T17:37:00.134Z,2
2023-05-24T17:39:59.959Z,2.15
2023-05-24T17:42:59.946Z,1.65
2023-05-24T17:45:59.965Z,1.75
2023-05-24T17:49:00.018Z,1.75
2023-05-24T17:52:02.018Z,1.45
2023-05-24T17:54:59.977Z,2.35
2023-05-24T17:57:59.919Z,2.55
2023-05-24T18:01:00.094Z,1.65
2023-05-24T18:03:59.988Z,1.85
2023-05-24T18:07:00.029Z,1.8
2023-05-24T18:10:01.712Z,1.2
2023-05-24T18:13:00.042Z,1.2
2023-05-24T18:15:59.906Z,1.05
2023-05-24T18:18:59.977Z,1.2
2023-05-24T18:22:00.028Z,0.85
2023-05-24T18:24:59.950Z,0.7
2023-05-24T18:28:00.009Z,0.65
2023-05-24T18:30:59.945Z,0.85
2023-05-24T18:34:02.849Z,0.5
2023-05-24T18:37:00.017Z,0.7
2023-05-24T18:40:00.026Z,0.85
2023-05-24T18:42:59.886Z,0.55
2023-05-24T18:45:59.969Z,0.8
2023-05-24T18:48:59.959Z,0.65
2023-05-24T18:51:59.981Z,0.4
2023-05-24T18:54:59.970Z,0.25
2023-05-24T18:57:59.982Z,0.45
2023-05-24T19:01:00.096Z,0.2
2023-05-24T19:03:59.990Z,0.2
2023-05-24T19:07:00.074Z,0
2023-05-24T19:10:00.049Z,0
2023-05-24T19:13:00.140Z,0
2023-05-24T19:16:00.008Z,0
2023-05-24T19:18:59.912Z,0.05
2023-05-24T19:21:59.994Z,0.2
2023-05-24T19:25:00.070Z,0.2
2023-05-24T19:28:02.055Z,0.2
2023-05-24T19:31:00.020Z,0.35
2023-05-24T19:34:02.357Z,0.4
2023-05-24T19:37:00.081Z,0.25
2023-05-24T19:40:00.050Z,0.4
2023-05-24T19:43:00.074Z,0.3
2023-05-24T19:46:00.083Z,0.25
2023-05-24T19:49:00.050Z,0.35
2023-05-24T19:52:00.031Z,0.25
2023-05-24T19:55:00.102Z,0.25
2023-05-24T19:58:00.126Z,0.25
2023-05-24T20:01:00.042Z,0.15
2023-05-24T20:04:00.284Z,0.2
2023-05-24T20:07:00.064Z,0.25
2023-05-24T20:10:00.049Z,0.25
2023-05-24T20:13:00.043Z,0.3
2023-05-24T20:16:00.161Z,0.15
2023-05-24T20:19:00.176Z,0.25
2023-05-24T20:22:00.212Z,0
2023-05-24T20:25:00.028Z,0.2
2023-05-24T20:28:00.028Z,0.3
2023-05-24T20:31:00.053Z,0.6
2023-05-24T20:34:00.100Z,0.4
2023-05-24T20:37:00.060Z,0.2
2023-05-24T20:40:00.135Z,0.5
2023-05-24T20:43:00.067Z,0.4
2023-05-24T20:46:00.234Z,0.85
2023-05-24T20:49:00.129Z,0.3
2023-05-24T20:52:00.134Z,0.15
2023-05-24T20:55:00.165Z,0.1
2023-05-24T20:58:00.046Z,0.3
2023-05-24T21:01:00.478Z,0.25
2023-05-24T21:04:00.075Z,0.35
2023-05-24T21:07:00.021Z,0.25
2023-05-24T21:10:00.123Z,0.3
2023-05-24T21:13:00.041Z,0.5
2023-05-24T21:16:00.110Z,0.3
2023-05-24T21:19:00.181Z,0.3
2023-05-24T21:22:00.165Z,0.35
2023-05-24T21:25:00.138Z,0.2
2023-05-24T21:28:00.168Z,0.15
2023-05-24T21:31:00.263Z,0.1
2023-05-24T21:34:00.159Z,0.3
2023-05-24T21:37:00.105Z,0.35
2023-05-24T21:40:00.187Z,0.25
2023-05-24T21:43:00.211Z,0.35
2023-05-24T21:46:00.070Z,0.3
2023-05-24T21:49:00.161Z,0.4
2023-05-24T21:52:00.127Z,0.25
2023-05-24T21:55:00.135Z,0.25
2023-05-24T21:58:00.046Z,0.25
2023-05-24T22:01:00.134Z,0.25
2023-05-24T22:04:00.229Z,0.45
2023-05-24T22:07:00.232Z,0.25
2023-05-24T22:10:00.203Z,0.45
2023-05-24T22:13:00.205Z,0.25
2023-05-24T22:16:00.311Z,0.25
2023-05-24T22:19:00.124Z,0.2
2023-05-24T22:22:00.162Z,0.15
2023-05-24T22:25:00.153Z,0.15
2023-05-24T22:28:00.125Z,0.15
2023-05-24T22:31:00.151Z,0.25
2023-05-24T22:34:00.180Z,0.35
2023-05-24T22:37:00.159Z,0.4
2023-05-24T22:40:00.262Z,0.35
2023-05-24T22:43:00.166Z,0.55
2023-05-24T22:46:00.303Z,0.85
2023-05-24T22:49:00.243Z,1
2023-05-24T22:52:00.169Z,0.95
2023-05-24T22:55:00.208Z,1
2023-05-24T22:58:00.243Z,1
2023-05-24T23:01:00.265Z,1.1
2023-05-24T23:04:19.442Z,0.85
2023-05-24T23:07:00.231Z,0.9
2023-05-24T23:10:00.245Z,0.9
2023-05-24T23:13:00.213Z,1.05
2023-05-24T23:16:00.201Z,0.9
2023-05-24T23:19:00.280Z,1.25
2023-05-24T23:22:00.231Z,0.95
2023-05-24T23:25:00.151Z,0.75
2023-05-24T23:28:00.221Z,1.4
2023-05-24T23:31:00.359Z,0.9
2023-05-24T23:34:00.297Z,0.8
2023-05-24T23:37:00.235Z,0.9
2023-05-24T23:40:00.207Z,1.05
2023-05-24T23:43:00.201Z,0.75
2023-05-24T23:46:00.193Z,0.8
2023-05-24T23:49:00.227Z,0.65
2023-05-24T23:52:00.300Z,0.35
2023-05-24T23:55:00.269Z,0.85
2023-05-24T23:58:00.241Z,1.25
